sensor_id;sensor_type;location;lat;lon;timestamp;P1;durP1;ratioP1;P2;durP2;ratioP2
25707;SDS011;13567;61.652;17.100;2022-07-03T00:00:23;8.48;;;2.05;;
25707;SDS011;13567;61.652;17.100;2022-07-03T00:02:50;8.73;;;2.00;;
25707;SDS011;13567;61.652;17.100;2022-07-03T00:05:17;7.43;;;2.15;;
25707;SDS011;13567;61.652;17.100;2022-07-03T00:07:44;6.68;;;1.98;;
25707;SDS011;13567;61.652;17.100;2022-07-03T00:10:11;8.57;;;2.25;;
25707;SDS011;13567;61.652;17.100;2022-07-03T00:12:38;7.32;;;2.08;;
25707;SDS011;13567;61.652;17.100;2022-07-03T00:15:05;6.25;;;2.03;;
25707;SDS011;13567;61.652;17.100;2022-07-03T00:17:33;6.85;;;2.25;;
25707;SDS011;13567;61.652;17.100;2022-07-03T00:19:59;10.10;;;2.30;;
25707;SDS011;13567;61.652;17.100;2022-07-03T00:22:26;7.13;;;2.22;;
25707;SDS011;13567;61.652;17.100;2022-07-03T00:25:03;4.80;;;2.00;;
25707;SDS011;13567;61.652;17.100;2022-07-03T00:27:32;11.05;;;2.13;;
25707;SDS011;13567;61.652;17.100;2022-07-03T00:30:01;6.35;;;2.22;;
25707;SDS011;13567;61.652;17.100;2022-07-03T00:32:29;6.95;;;1.90;;
25707;SDS011;13567;61.652;17.100;2022-07-03T00:34:56;12.15;;;2.20;;
25707;SDS011;13567;61.652;17.100;2022-07-03T00:37:24;10.20;;;2.15;;
25707;SDS011;13567;61.652;17.100;2022-07-03T00:39:51;5.55;;;1.98;;
25707;SDS011;13567;61.652;17.100;2022-07-03T00:42:19;8.38;;;2.30;;
25707;SDS011;13567;61.652;17.100;2022-07-03T00:44:52;8.20;;;2.10;;
25707;SDS011;13567;61.652;17.100;2022-07-03T00:47:23;7.78;;;2.20;;
25707;SDS011;13567;61.652;17.100;2022-07-03T00:49:55;7.45;;;2.15;;
25707;SDS011;13567;61.652;17.100;2022-07-03T00:52:25;4.38;;;1.85;;
25707;SDS011;13567;61.652;17.100;2022-07-03T00:54:57;8.32;;;2.47;;
25707;SDS011;13567;61.652;17.100;2022-07-03T00:57:28;7.25;;;2.03;;
25707;SDS011;13567;61.652;17.100;2022-07-03T00:59:56;9.10;;;2.28;;
25707;SDS011;13567;61.652;17.100;2022-07-03T01:05:26;6.72;;;2.05;;
25707;SDS011;13567;61.652;17.100;2022-07-03T01:10:59;8.40;;;1.83;;
25707;SDS011;13567;61.652;17.100;2022-07-03T01:22:09;9.02;;;2.25;;
25707;SDS011;13567;61.652;17.100;2022-07-03T01:30:15;9.52;;;2.38;;
25707;SDS011;13567;61.652;17.100;2022-07-03T01:32:46;6.22;;;1.83;;
25707;SDS011;13567;61.652;17.100;2022-07-03T01:35:21;8.07;;;2.10;;
25707;SDS011;13567;61.652;17.100;2022-07-03T01:37:53;6.15;;;1.70;;
25707;SDS011;13567;61.652;17.100;2022-07-03T01:40:21;8.63;;;2.05;;
25707;SDS011;13567;61.652;17.100;2022-07-03T01:42:53;10.45;;;2.50;;
25707;SDS011;13567;61.652;17.100;2022-07-03T01:45:22;8.07;;;2.00;;
25707;SDS011;13567;61.652;17.100;2022-07-03T01:47:52;6.90;;;2.10;;
25707;SDS011;13567;61.652;17.100;2022-07-03T01:50:20;9.32;;;2.55;;
25707;SDS011;13567;61.652;17.100;2022-07-03T01:52:48;7.28;;;2.42;;
25707;SDS011;13567;61.652;17.100;2022-07-03T01:55:16;7.18;;;1.90;;
25707;SDS011;13567;61.652;17.100;2022-07-03T01:57:46;8.77;;;2.05;;
25707;SDS011;13567;61.652;17.100;2022-07-03T02:00:15;9.30;;;2.08;;
25707;SDS011;13567;61.652;17.100;2022-07-03T02:03:05;10.50;;;2.10;;
25707;SDS011;13567;61.652;17.100;2022-07-03T02:05:33;5.53;;;1.90;;
25707;SDS011;13567;61.652;17.100;2022-07-03T02:10:51;10.70;;;2.40;;
25707;SDS011;13567;61.652;17.100;2022-07-03T02:13:51;9.73;;;2.35;;
25707;SDS011;13567;61.652;17.100;2022-07-03T02:16:31;10.20;;;2.60;;
25707;SDS011;13567;61.652;17.100;2022-07-03T02:20:07;6.90;;;2.20;;
25707;SDS011;13567;61.652;17.100;2022-07-03T02:22:20;7.50;;;2.63;;
25707;SDS011;13567;61.652;17.100;2022-07-03T02:24:51;10.20;;;2.65;;
25707;SDS011;13567;61.652;17.100;2022-07-03T02:27:23;8.23;;;2.75;;
25707;SDS011;13567;61.652;17.100;2022-07-03T02:30:01;6.75;;;2.10;;
25707;SDS011;13567;61.652;17.100;2022-07-03T02:32:30;9.23;;;2.50;;
25707;SDS011;13567;61.652;17.100;2022-07-03T02:35:02;10.82;;;2.47;;
25707;SDS011;13567;61.652;17.100;2022-07-03T02:37:41;9.30;;;2.40;;
25707;SDS011;13567;61.652;17.100;2022-07-03T02:46:17;8.48;;;2.38;;
25707;SDS011;13567;61.652;17.100;2022-07-03T02:49:20;13.15;;;3.00;;
25707;SDS011;13567;61.652;17.100;2022-07-03T02:51:54;9.68;;;2.70;;
25707;SDS011;13567;61.652;17.100;2022-07-03T02:54:29;7.50;;;2.63;;
25707;SDS011;13567;61.652;17.100;2022-07-03T02:57:08;9.80;;;2.50;;
25707;SDS011;13567;61.652;17.100;2022-07-03T03:04:58;10.85;;;2.63;;
25707;SDS011;13567;61.652;17.100;2022-07-03T03:07:35;8.25;;;2.30;;
25707;SDS011;13567;61.652;17.100;2022-07-03T03:10:12;6.13;;;1.95;;
25707;SDS011;13567;61.652;17.100;2022-07-03T03:12:41;6.32;;;2.13;;
25707;SDS011;13567;61.652;17.100;2022-07-03T03:15:12;7.05;;;2.05;;
25707;SDS011;13567;61.652;17.100;2022-07-03T03:17:43;7.63;;;2.17;;
25707;SDS011;13567;61.652;17.100;2022-07-03T03:20:14;9.30;;;1.95;;
25707;SDS011;13567;61.652;17.100;2022-07-03T03:25:25;7.18;;;2.10;;
25707;SDS011;13567;61.652;17.100;2022-07-03T03:27:52;10.48;;;2.50;;
25707;SDS011;13567;61.652;17.100;2022-07-03T03:30:20;9.18;;;2.30;;
25707;SDS011;13567;61.652;17.100;2022-07-03T03:32:47;11.30;;;2.92;;
25707;SDS011;13567;61.652;17.100;2022-07-03T03:35:13;7.93;;;2.45;;
25707;SDS011;13567;61.652;17.100;2022-07-03T03:37:41;6.45;;;2.50;;
25707;SDS011;13567;61.652;17.100;2022-07-03T03:40:09;6.70;;;2.00;;
25707;SDS011;13567;61.652;17.100;2022-07-03T03:42:37;9.88;;;2.63;;
25707;SDS011;13567;61.652;17.100;2022-07-03T03:45:04;7.90;;;2.35;;
25707;SDS011;13567;61.652;17.100;2022-07-03T03:47:33;8.90;;;2.67;;
25707;SDS011;13567;61.652;17.100;2022-07-03T03:50:01;7.97;;;2.13;;
25707;SDS011;13567;61.652;17.100;2022-07-03T03:52:29;6.82;;;1.90;;
25707;SDS011;13567;61.652;17.100;2022-07-03T03:54:56;7.82;;;2.22;;
25707;SDS011;13567;61.652;17.100;2022-07-03T03:57:23;11.18;;;2.00;;
25707;SDS011;13567;61.652;17.100;2022-07-03T03:59:51;10.38;;;2.10;;
25707;SDS011;13567;61.652;17.100;2022-07-03T04:02:18;9.00;;;2.60;;
25707;SDS011;13567;61.652;17.100;2022-07-03T04:04:45;6.80;;;2.30;;
25707;SDS011;13567;61.652;17.100;2022-07-03T04:07:12;9.68;;;2.00;;
25707;SDS011;13567;61.652;17.100;2022-07-03T04:09:39;11.32;;;2.20;;
25707;SDS011;13567;61.652;17.100;2022-07-03T04:12:06;8.65;;;2.17;;
25707;SDS011;13567;61.652;17.100;2022-07-03T04:14:33;6.82;;;2.03;;
25707;SDS011;13567;61.652;17.100;2022-07-03T04:17:00;7.97;;;2.10;;
25707;SDS011;13567;61.652;17.100;2022-07-03T04:19:27;6.15;;;1.70;;
25707;SDS011;13567;61.652;17.100;2022-07-03T04:21:54;10.77;;;2.05;;
25707;SDS011;13567;61.652;17.100;2022-07-03T04:24:21;5.97;;;1.70;;
25707;SDS011;13567;61.652;17.100;2022-07-03T04:26:48;7.90;;;2.00;;
25707;SDS011;13567;61.652;17.100;2022-07-03T04:29:15;13.50;;;2.20;;
25707;SDS011;13567;61.652;17.100;2022-07-03T04:31:42;8.32;;;1.92;;
25707;SDS011;13567;61.652;17.100;2022-07-03T04:34:09;7.13;;;2.38;;
25707;SDS011;13567;61.652;17.100;2022-07-03T04:36:36;7.90;;;1.90;;
25707;SDS011;13567;61.652;17.100;2022-07-03T04:39:03;10.73;;;2.00;;
25707;SDS011;13567;61.652;17.100;2022-07-03T04:41:30;6.40;;;1.80;;
25707;SDS011;13567;61.652;17.100;2022-07-03T04:43:56;7.18;;;1.73;;
25707;SDS011;13567;61.652;17.100;2022-07-03T04:46:23;5.80;;;1.70;;
25707;SDS011;13567;61.652;17.100;2022-07-03T04:48:50;9.15;;;1.95;;
25707;SDS011;13567;61.652;17.100;2022-07-03T04:51:17;6.70;;;1.52;;
25707;SDS011;13567;61.652;17.100;2022-07-03T04:53:44;8.20;;;1.65;;
25707;SDS011;13567;61.652;17.100;2022-07-03T04:56:11;5.30;;;1.52;;
25707;SDS011;13567;61.652;17.100;2022-07-03T04:58:38;6.65;;;1.70;;
25707;SDS011;13567;61.652;17.100;2022-07-03T05:01:04;5.88;;;1.75;;
25707;SDS011;13567;61.652;17.100;2022-07-03T05:03:32;5.88;;;1.85;;
25707;SDS011;13567;61.652;17.100;2022-07-03T05:05:58;6.47;;;1.52;;
25707;SDS011;13567;61.652;17.100;2022-07-03T05:08:25;8.38;;;2.13;;
25707;SDS011;13567;61.652;17.100;2022-07-03T05:10:52;6.60;;;1.90;;
25707;SDS011;13567;61.652;17.100;2022-07-03T05:13:19;5.85;;;1.52;;
25707;SDS011;13567;61.652;17.100;2022-07-03T05:15:46;7.90;;;2.00;;
25707;SDS011;13567;61.652;17.100;2022-07-03T05:18:13;7.82;;;2.05;;
25707;SDS011;13567;61.652;17.100;2022-07-03T05:20:46;5.00;;;1.77;;
25707;SDS011;13567;61.652;17.100;2022-07-03T05:23:13;5.40;;;1.42;;
25707;SDS011;13567;61.652;17.100;2022-07-03T05:25:40;10.50;;;2.10;;
25707;SDS011;13567;61.652;17.100;2022-07-03T05:28:07;8.10;;;1.90;;
25707;SDS011;13567;61.652;17.100;2022-07-03T05:30:34;7.43;;;2.00;;
25707;SDS011;13567;61.652;17.100;2022-07-03T05:33:01;7.63;;;1.75;;
25707;SDS011;13567;61.652;17.100;2022-07-03T05:35:28;6.40;;;1.90;;
25707;SDS011;13567;61.652;17.100;2022-07-03T05:37:55;7.20;;;1.75;;
25707;SDS011;13567;61.652;17.100;2022-07-03T05:40:22;5.57;;;1.60;;
25707;SDS011;13567;61.652;17.100;2022-07-03T05:42:49;8.07;;;1.70;;
25707;SDS011;13567;61.652;17.100;2022-07-03T05:45:16;8.18;;;1.60;;
25707;SDS011;13567;61.652;17.100;2022-07-03T05:47:43;11.18;;;2.33;;
25707;SDS011;13567;61.652;17.100;2022-07-03T05:50:09;6.88;;;1.90;;
25707;SDS011;13567;61.652;17.100;2022-07-03T05:52:37;5.45;;;1.67;;
25707;SDS011;13567;61.652;17.100;2022-07-03T05:55:04;8.52;;;1.80;;
25707;SDS011;13567;61.652;17.100;2022-07-03T05:57:31;6.30;;;1.90;;
25707;SDS011;13567;61.652;17.100;2022-07-03T05:59:59;8.73;;;1.88;;
25707;SDS011;13567;61.652;17.100;2022-07-03T06:02:27;5.85;;;1.50;;
25707;SDS011;13567;61.652;17.100;2022-07-03T06:04:54;6.05;;;1.63;;
25707;SDS011;13567;61.652;17.100;2022-07-03T06:07:20;5.88;;;1.73;;
25707;SDS011;13567;61.652;17.100;2022-07-03T06:09:48;7.75;;;1.70;;
25707;SDS011;13567;61.652;17.100;2022-07-03T06:12:15;7.35;;;1.90;;
25707;SDS011;13567;61.652;17.100;2022-07-03T06:14:41;6.20;;;1.73;;
25707;SDS011;13567;61.652;17.100;2022-07-03T06:17:08;7.47;;;1.88;;
25707;SDS011;13567;61.652;17.100;2022-07-03T06:19:35;5.40;;;1.73;;
25707;SDS011;13567;61.652;17.100;2022-07-03T06:22:02;8.10;;;1.75;;
25707;SDS011;13567;61.652;17.100;2022-07-03T06:24:29;7.93;;;1.70;;
25707;SDS011;13567;61.652;17.100;2022-07-03T06:26:56;5.18;;;1.17;;
25707;SDS011;13567;61.652;17.100;2022-07-03T06:29:23;7.10;;;1.65;;
25707;SDS011;13567;61.652;17.100;2022-07-03T06:31:51;5.05;;;1.58;;
25707;SDS011;13567;61.652;17.100;2022-07-03T06:34:18;5.05;;;1.40;;
25707;SDS011;13567;61.652;17.100;2022-07-03T06:36:45;7.43;;;1.65;;
25707;SDS011;13567;61.652;17.100;2022-07-03T06:39:12;4.35;;;1.35;;
25707;SDS011;13567;61.652;17.100;2022-07-03T06:41:39;4.55;;;1.35;;
25707;SDS011;13567;61.652;17.100;2022-07-03T06:44:05;9.00;;;1.50;;
25707;SDS011;13567;61.652;17.100;2022-07-03T06:46:32;7.43;;;1.70;;
25707;SDS011;13567;61.652;17.100;2022-07-03T06:48:59;6.95;;;1.85;;
25707;SDS011;13567;61.652;17.100;2022-07-03T06:51:26;4.93;;;1.42;;
25707;SDS011;13567;61.652;17.100;2022-07-03T06:53:53;7.20;;;1.23;;
25707;SDS011;13567;61.652;17.100;2022-07-03T06:56:20;6.18;;;1.40;;
25707;SDS011;13567;61.652;17.100;2022-07-03T06:58:52;7.05;;;1.20;;
25707;SDS011;13567;61.652;17.100;2022-07-03T07:01:19;6.65;;;1.48;;
25707;SDS011;13567;61.652;17.100;2022-07-03T07:03:46;6.57;;;1.38;;
25707;SDS011;13567;61.652;17.100;2022-07-03T07:06:12;4.10;;;1.10;;
25707;SDS011;13567;61.652;17.100;2022-07-03T07:08:39;7.13;;;1.60;;
25707;SDS011;13567;61.652;17.100;2022-07-03T07:11:06;5.30;;;1.25;;
25707;SDS011;13567;61.652;17.100;2022-07-03T07:13:33;6.63;;;1.15;;
25707;SDS011;13567;61.652;17.100;2022-07-03T07:16:00;4.63;;;1.05;;
25707;SDS011;13567;61.652;17.100;2022-07-03T07:18:27;6.22;;;1.45;;
25707;SDS011;13567;61.652;17.100;2022-07-03T07:20:54;6.32;;;1.50;;
25707;SDS011;13567;61.652;17.100;2022-07-03T07:23:21;10.00;;;1.40;;
25707;SDS011;13567;61.652;17.100;2022-07-03T07:25:48;5.47;;;1.58;;
25707;SDS011;13567;61.652;17.100;2022-07-03T07:28:15;6.45;;;1.42;;
25707;SDS011;13567;61.652;17.100;2022-07-03T07:30:41;3.05;;;1.05;;
25707;SDS011;13567;61.652;17.100;2022-07-03T07:33:08;4.50;;;1.35;;
25707;SDS011;13567;61.652;17.100;2022-07-03T07:35:36;4.70;;;1.38;;
25707;SDS011;13567;61.652;17.100;2022-07-03T07:38:03;6.82;;;1.33;;
25707;SDS011;13567;61.652;17.100;2022-07-03T07:40:34;3.53;;;1.17;;
25707;SDS011;13567;61.652;17.100;2022-07-03T07:43:01;4.13;;;1.17;;
25707;SDS011;13567;61.652;17.100;2022-07-03T07:45:27;3.05;;;0.98;;
25707;SDS011;13567;61.652;17.100;2022-07-03T07:47:54;4.68;;;1.30;;
25707;SDS011;13567;61.652;17.100;2022-07-03T07:50:21;6.68;;;1.20;;
25707;SDS011;13567;61.652;17.100;2022-07-03T07:52:48;4.60;;;1.08;;
25707;SDS011;13567;61.652;17.100;2022-07-03T07:55:15;4.40;;;1.10;;
25707;SDS011;13567;61.652;17.100;2022-07-03T07:57:42;4.00;;;1.30;;
25707;SDS011;13567;61.652;17.100;2022-07-03T08:00:13;8.00;;;1.40;;
25707;SDS011;13567;61.652;17.100;2022-07-03T08:02:44;8.05;;;1.65;;
25707;SDS011;13567;61.652;17.100;2022-07-03T08:05:30;2.70;;;1.02;;
25707;SDS011;13567;61.652;17.100;2022-07-03T08:08:07;7.43;;;1.30;;
25707;SDS011;13567;61.652;17.100;2022-07-03T08:10:42;7.82;;;1.60;;
25707;SDS011;13567;61.652;17.100;2022-07-03T08:13:15;7.50;;;1.42;;
25707;SDS011;13567;61.652;17.100;2022-07-03T08:15:43;3.75;;;1.30;;
25707;SDS011;13567;61.652;17.100;2022-07-03T08:18:11;5.00;;;1.42;;
25707;SDS011;13567;61.652;17.100;2022-07-03T08:20:39;7.03;;;1.30;;
25707;SDS011;13567;61.652;17.100;2022-07-03T08:23:06;4.47;;;1.40;;
25707;SDS011;13567;61.652;17.100;2022-07-03T08:25:33;9.23;;;1.70;;
25707;SDS011;13567;61.652;17.100;2022-07-03T08:28:00;7.53;;;1.42;;
25707;SDS011;13567;61.652;17.100;2022-07-03T08:30:27;7.50;;;1.60;;
25707;SDS011;13567;61.652;17.100;2022-07-03T08:32:56;7.35;;;1.40;;
25707;SDS011;13567;61.652;17.100;2022-07-03T08:35:24;9.40;;;1.30;;
25707;SDS011;13567;61.652;17.100;2022-07-03T08:37:51;6.53;;;1.35;;
25707;SDS011;13567;61.652;17.100;2022-07-03T08:40:19;5.80;;;1.20;;
25707;SDS011;13567;61.652;17.100;2022-07-03T08:42:47;7.65;;;1.33;;
25707;SDS011;13567;61.652;17.100;2022-07-03T08:45:18;7.25;;;1.30;;
25707;SDS011;13567;61.652;17.100;2022-07-03T08:47:47;12.38;;;1.73;;
25707;SDS011;13567;61.652;17.100;2022-07-03T08:50:16;4.90;;;1.42;;
25707;SDS011;13567;61.652;17.100;2022-07-03T08:52:44;7.88;;;1.10;;
25707;SDS011;13567;61.652;17.100;2022-07-03T08:55:12;7.85;;;1.50;;
25707;SDS011;13567;61.652;17.100;2022-07-03T08:57:41;3.13;;;1.10;;
25707;SDS011;13567;61.652;17.100;2022-07-03T09:00:10;8.90;;;1.50;;
25707;SDS011;13567;61.652;17.100;2022-07-03T09:02:46;5.18;;;1.40;;
25707;SDS011;13567;61.652;17.100;2022-07-03T09:05:15;6.65;;;1.20;;
25707;SDS011;13567;61.652;17.100;2022-07-03T09:07:44;7.20;;;1.23;;
25707;SDS011;13567;61.652;17.100;2022-07-03T09:10:13;8.82;;;1.70;;
25707;SDS011;13567;61.652;17.100;2022-07-03T09:12:46;5.03;;;1.17;;
25707;SDS011;13567;61.652;17.100;2022-07-03T09:15:15;5.43;;;1.25;;
25707;SDS011;13567;61.652;17.100;2022-07-03T09:17:57;7.38;;;1.52;;
25707;SDS011;13567;61.652;17.100;2022-07-03T09:20:27;2.40;;;0.90;;
25707;SDS011;13567;61.652;17.100;2022-07-03T09:25:53;6.88;;;1.42;;
25707;SDS011;13567;61.652;17.100;2022-07-03T09:28:23;3.75;;;1.20;;
25707;SDS011;13567;61.652;17.100;2022-07-03T09:31:06;4.57;;;1.00;;
25707;SDS011;13567;61.652;17.100;2022-07-03T09:33:33;6.60;;;1.10;;
25707;SDS011;13567;61.652;17.100;2022-07-03T09:36:00;5.82;;;0.85;;
25707;SDS011;13567;61.652;17.100;2022-07-03T09:38:27;2.67;;;1.00;;
25707;SDS011;13567;61.652;17.100;2022-07-03T09:40:54;5.22;;;1.05;;
25707;SDS011;13567;61.652;17.100;2022-07-03T09:51:24;3.45;;;1.10;;
25707;SDS011;13567;61.652;17.100;2022-07-03T09:53:56;4.28;;;1.20;;
25707;SDS011;13567;61.652;17.100;2022-07-03T09:56:25;4.25;;;1.15;;
25707;SDS011;13567;61.652;17.100;2022-07-03T09:59:02;3.63;;;1.25;;
25707;SDS011;13567;61.652;17.100;2022-07-03T10:01:40;6.13;;;1.10;;
25707;SDS011;13567;61.652;17.100;2022-07-03T10:06:51;6.30;;;1.30;;
25707;SDS011;13567;61.652;17.100;2022-07-03T10:09:24;6.25;;;1.45;;
25707;SDS011;13567;61.652;17.100;2022-07-03T10:11:55;3.38;;;1.30;;
25707;SDS011;13567;61.652;17.100;2022-07-03T10:14:24;5.95;;;1.52;;
25707;SDS011;13567;61.652;17.100;2022-07-03T10:16:53;4.32;;;1.38;;
25707;SDS011;13567;61.652;17.100;2022-07-03T10:19:30;6.45;;;1.40;;
25707;SDS011;13567;61.652;17.100;2022-07-03T10:22:05;4.18;;;1.05;;
25707;SDS011;13567;61.652;17.100;2022-07-03T10:24:36;7.18;;;1.27;;
25707;SDS011;13567;61.652;17.100;2022-07-03T10:27:04;10.10;;;1.30;;
25707;SDS011;13567;61.652;17.100;2022-07-03T10:29:31;9.38;;;1.38;;
25707;SDS011;13567;61.652;17.100;2022-07-03T10:31:59;3.70;;;0.85;;
25707;SDS011;13567;61.652;17.100;2022-07-03T10:34:26;6.28;;;1.42;;
25707;SDS011;13567;61.652;17.100;2022-07-03T10:36:59;6.20;;;1.45;;
25707;SDS011;13567;61.652;17.100;2022-07-03T10:42:31;2.80;;;1.00;;
25707;SDS011;13567;61.652;17.100;2022-07-03T10:45:19;5.28;;;1.33;;
25707;SDS011;13567;61.652;17.100;2022-07-03T10:47:47;9.32;;;1.20;;
25707;SDS011;13567;61.652;17.100;2022-07-03T10:50:15;4.20;;;1.17;;
25707;SDS011;13567;61.652;17.100;2022-07-03T10:52:47;6.20;;;1.30;;
25707;SDS011;13567;61.652;17.100;2022-07-03T10:55:15;4.22;;;1.20;;
25707;SDS011;13567;61.652;17.100;2022-07-03T10:58:05;5.13;;;1.10;;
25707;SDS011;13567;61.652;17.100;2022-07-03T11:00:53;4.05;;;1.13;;
25707;SDS011;13567;61.652;17.100;2022-07-03T11:09:11;3.83;;;1.10;;
25707;SDS011;13567;61.652;17.100;2022-07-03T11:11:40;5.53;;;1.20;;
25707;SDS011;13567;61.652;17.100;2022-07-03T11:14:27;3.67;;;1.13;;
25707;SDS011;13567;61.652;17.100;2022-07-03T11:19:46;8.93;;;1.10;;
25707;SDS011;13567;61.652;17.100;2022-07-03T11:22:36;4.03;;;1.00;;
25707;SDS011;13567;61.652;17.100;2022-07-03T11:25:07;3.42;;;0.70;;
25707;SDS011;13567;61.652;17.100;2022-07-03T11:27:35;5.45;;;1.00;;
25707;SDS011;13567;61.652;17.100;2022-07-03T11:30:02;5.97;;;1.10;;
25707;SDS011;13567;61.652;17.100;2022-07-03T11:38:22;3.83;;;1.00;;
25707;SDS011;13567;61.652;17.100;2022-07-03T11:40:51;3.25;;;1.00;;
25707;SDS011;13567;61.652;17.100;2022-07-03T11:43:19;7.38;;;1.20;;
25707;SDS011;13567;61.652;17.100;2022-07-03T11:45:47;5.07;;;1.10;;
25707;SDS011;13567;61.652;17.100;2022-07-03T11:48:15;5.00;;;1.00;;
25707;SDS011;13567;61.652;17.100;2022-07-03T11:50:47;7.72;;;1.75;;
25707;SDS011;13567;61.652;17.100;2022-07-03T11:53:18;7.30;;;1.20;;
25707;SDS011;13567;61.652;17.100;2022-07-03T11:55:50;5.65;;;1.20;;
25707;SDS011;13567;61.652;17.100;2022-07-03T11:58:22;4.60;;;1.02;;
25707;SDS011;13567;61.652;17.100;2022-07-03T12:00:50;5.97;;;1.55;;
25707;SDS011;13567;61.652;17.100;2022-07-03T12:03:22;5.47;;;1.02;;
25707;SDS011;13567;61.652;17.100;2022-07-03T12:05:53;7.93;;;1.35;;
25707;SDS011;13567;61.652;17.100;2022-07-03T12:08:28;4.43;;;0.88;;
25707;SDS011;13567;61.652;17.100;2022-07-03T12:11:08;3.13;;;1.13;;
25707;SDS011;13567;61.652;17.100;2022-07-03T12:13:36;10.57;;;1.73;;
25707;SDS011;13567;61.652;17.100;2022-07-03T12:16:13;6.43;;;1.33;;
25707;SDS011;13567;61.652;17.100;2022-07-03T12:18:47;6.13;;;1.05;;
25707;SDS011;13567;61.652;17.100;2022-07-03T12:21:15;5.43;;;1.33;;
25707;SDS011;13567;61.652;17.100;2022-07-03T12:23:46;5.80;;;1.20;;
25707;SDS011;13567;61.652;17.100;2022-07-03T12:26:33;4.57;;;0.95;;
25707;SDS011;13567;61.652;17.100;2022-07-03T12:29:06;3.08;;;0.90;;
25707;SDS011;13567;61.652;17.100;2022-07-03T12:31:34;4.82;;;1.25;;
25707;SDS011;13567;61.652;17.100;2022-07-03T12:34:05;6.20;;;1.08;;
25707;SDS011;13567;61.652;17.100;2022-07-03T12:36:32;6.63;;;1.20;;
25707;SDS011;13567;61.652;17.100;2022-07-03T12:38:59;5.35;;;1.40;;
25707;SDS011;13567;61.652;17.100;2022-07-03T12:41:26;3.13;;;1.10;;
25707;SDS011;13567;61.652;17.100;2022-07-03T12:43:53;7.28;;;1.02;;
25707;SDS011;13567;61.652;17.100;2022-07-03T12:46:25;5.20;;;1.10;;
25707;SDS011;13567;61.652;17.100;2022-07-03T12:48:56;7.00;;;1.42;;
25707;SDS011;13567;61.652;17.100;2022-07-03T12:54:13;5.65;;;1.20;;
25707;SDS011;13567;61.652;17.100;2022-07-03T12:57:06;5.00;;;1.23;;
25707;SDS011;13567;61.652;17.100;2022-07-03T13:00:27;5.97;;;1.10;;
25707;SDS011;13567;61.652;17.100;2022-07-03T13:02:47;6.45;;;1.20;;
25707;SDS011;13567;61.652;17.100;2022-07-03T13:05:16;7.15;;;1.40;;
25707;SDS011;13567;61.652;17.100;2022-07-03T13:07:46;4.57;;;1.17;;
25707;SDS011;13567;61.652;17.100;2022-07-03T13:10:14;6.70;;;1.25;;
25707;SDS011;13567;61.652;17.100;2022-07-03T13:12:52;4.32;;;1.20;;
25707;SDS011;13567;61.652;17.100;2022-07-03T13:15:24;5.72;;;1.50;;
25707;SDS011;13567;61.652;17.100;2022-07-03T13:20:23;6.35;;;1.40;;
25707;SDS011;13567;61.652;17.100;2022-07-03T13:22:50;6.43;;;1.48;;
25707;SDS011;13567;61.652;17.100;2022-07-03T13:25:18;5.72;;;1.42;;
25707;SDS011;13567;61.652;17.100;2022-07-03T13:27:46;7.50;;;1.48;;
25707;SDS011;13567;61.652;17.100;2022-07-03T13:30:13;10.88;;;1.50;;
25707;SDS011;13567;61.652;17.100;2022-07-03T13:32:41;7.30;;;1.30;;
25707;SDS011;13567;61.652;17.100;2022-07-03T13:35:09;6.95;;;1.85;;
25707;SDS011;13567;61.652;17.100;2022-07-03T13:37:36;7.80;;;1.65;;
25707;SDS011;13567;61.652;17.100;2022-07-03T13:40:04;7.18;;;1.25;;
25707;SDS011;13567;61.652;17.100;2022-07-03T13:42:31;8.02;;;1.67;;
25707;SDS011;13567;61.652;17.100;2022-07-03T13:44:58;5.32;;;1.40;;
25707;SDS011;13567;61.652;17.100;2022-07-03T13:47:25;6.70;;;1.38;;
25707;SDS011;13567;61.652;17.100;2022-07-03T13:49:52;7.25;;;1.60;;
25707;SDS011;13567;61.652;17.100;2022-07-03T13:52:19;6.65;;;1.40;;
25707;SDS011;13567;61.652;17.100;2022-07-03T13:54:45;8.23;;;1.70;;
25707;SDS011;13567;61.652;17.100;2022-07-03T13:57:14;4.05;;;1.08;;
25707;SDS011;13567;61.652;17.100;2022-07-03T13:59:41;5.80;;;1.30;;
25707;SDS011;13567;61.652;17.100;2022-07-03T14:02:08;3.88;;;1.27;;
25707;SDS011;13567;61.652;17.100;2022-07-03T14:04:36;5.95;;;1.40;;
25707;SDS011;13567;61.652;17.100;2022-07-03T14:07:03;3.83;;;1.35;;
25707;SDS011;13567;61.652;17.100;2022-07-03T14:09:30;7.40;;;1.77;;
25707;SDS011;13567;61.652;17.100;2022-07-03T14:11:57;6.35;;;1.60;;
25707;SDS011;13567;61.652;17.100;2022-07-03T14:14:24;4.30;;;1.30;;
25707;SDS011;13567;61.652;17.100;2022-07-03T14:16:51;7.53;;;1.60;;
25707;SDS011;13567;61.652;17.100;2022-07-03T14:19:18;7.68;;;1.48;;
25707;SDS011;13567;61.652;17.100;2022-07-03T14:21:45;7.35;;;2.25;;
25707;SDS011;13567;61.652;17.100;2022-07-03T14:24:12;6.30;;;1.70;;
25707;SDS011;13567;61.652;17.100;2022-07-03T14:26:39;5.97;;;1.33;;
25707;SDS011;13567;61.652;17.100;2022-07-03T14:29:24;6.47;;;1.90;;
25707;SDS011;13567;61.652;17.100;2022-07-03T14:32:09;5.90;;;1.90;;
25707;SDS011;13567;61.652;17.100;2022-07-03T14:34:58;8.15;;;2.70;;
25707;SDS011;13567;61.652;17.100;2022-07-03T14:37:27;7.53;;;1.50;;
25707;SDS011;13567;61.652;17.100;2022-07-03T14:39:54;5.28;;;1.20;;
25707;SDS011;13567;61.652;17.100;2022-07-03T14:42:22;5.20;;;1.20;;
25707;SDS011;13567;61.652;17.100;2022-07-03T14:44:49;4.03;;;1.17;;
25707;SDS011;13567;61.652;17.100;2022-07-03T14:47:16;4.55;;;1.40;;
25707;SDS011;13567;61.652;17.100;2022-07-03T14:49:44;3.55;;;1.33;;
25707;SDS011;13567;61.652;17.100;2022-07-03T14:52:11;6.03;;;1.27;;
25707;SDS011;13567;61.652;17.100;2022-07-03T14:54:39;11.13;;;2.70;;
25707;SDS011;13567;61.652;17.100;2022-07-03T14:59:51;6.45;;;1.73;;
25707;SDS011;13567;61.652;17.100;2022-07-03T15:02:21;11.68;;;2.97;;
25707;SDS011;13567;61.652;17.100;2022-07-03T15:07:35;12.43;;;4.53;;
25707;SDS011;13567;61.652;17.100;2022-07-03T15:10:09;12.85;;;4.40;;
25707;SDS011;13567;61.652;17.100;2022-07-03T15:12:42;11.52;;;4.15;;
25707;SDS011;13567;61.652;17.100;2022-07-03T15:15:13;4.78;;;1.58;;
25707;SDS011;13567;61.652;17.100;2022-07-03T15:17:41;5.65;;;1.27;;
25707;SDS011;13567;61.652;17.100;2022-07-03T15:20:12;5.03;;;1.63;;
25707;SDS011;13567;61.652;17.100;2022-07-03T15:22:40;5.65;;;1.52;;
25707;SDS011;13567;61.652;17.100;2022-07-03T15:25:09;6.00;;;1.83;;
25707;SDS011;13567;61.652;17.100;2022-07-03T15:27:37;7.35;;;1.65;;
25707;SDS011;13567;61.652;17.100;2022-07-03T15:30:05;3.70;;;1.42;;
25707;SDS011;13567;61.652;17.100;2022-07-03T15:32:35;7.15;;;1.58;;
25707;SDS011;13567;61.652;17.100;2022-07-03T15:35:03;12.70;;;4.10;;
25707;SDS011;13567;61.652;17.100;2022-07-03T15:40:16;5.05;;;1.73;;
25707;SDS011;13567;61.652;17.100;2022-07-03T15:42:56;5.93;;;1.50;;
25707;SDS011;13567;61.652;17.100;2022-07-03T15:45:44;3.85;;;0.80;;
25707;SDS011;13567;61.652;17.100;2022-07-03T15:51:21;4.88;;;0.90;;
25707;SDS011;13567;61.652;17.100;2022-07-03T15:54:00;4.32;;;1.00;;
25707;SDS011;13567;61.652;17.100;2022-07-03T15:56:34;2.50;;;0.70;;
25707;SDS011;13567;61.652;17.100;2022-07-03T15:59:03;6.25;;;1.00;;
25707;SDS011;13567;61.652;17.100;2022-07-03T16:01:34;3.88;;;1.15;;
25707;SDS011;13567;61.652;17.100;2022-07-03T16:04:28;2.72;;;0.75;;
25707;SDS011;13567;61.652;17.100;2022-07-03T16:07:01;6.22;;;0.98;;
25707;SDS011;13567;61.652;17.100;2022-07-03T16:09:30;9.18;;;1.65;;
25707;SDS011;13567;61.652;17.100;2022-07-03T16:11:57;3.88;;;0.95;;
25707;SDS011;13567;61.652;17.100;2022-07-03T16:14:24;3.75;;;0.93;;